SJX761 RCTP-WIII
Flight info
| Callsign | SJX761 |
|---|---|
| Flight time | N/A |
| Altitude | 36000 |
| Route | TINHO1A TINHO Q11 TITUS B591 JICHI Q11 POTIB M646 ABVAR/N0477F380 M646 SANRO B591 LUBAN/N0477F370 W3 OLRAX/N0476F380 M646 VJN P648 AMBOY |
| Aircraft | A339/H-SADE1E2E3GHIJ3J5M1P2RWXY/LB2D1 |
Departure
| Time | N/A |
|---|---|
| Airport | Taiwan Taoyuan International Airport (RCTP) |
Arrival
| Time | 2026-05-06 12:41 |
|---|---|
| Airport | Soekarno-Hatta International Airport (WIII) |
| Time | Latitude | Longitude | Altitude | Speed | Heading |
|---|---|---|---|---|---|
| 2026-05-06 11:19 | 1.15497 | 112.31439 | 37849 ft | 483 kts | 216° |
| 2026-05-06 11:19 | 1.12826 | 112.29366 | 37846 ft | 483 kts | 216° |
| 2026-05-06 11:20 | 1.07502 | 112.25234 | 37839 ft | 483 kts | 216° |
| 2026-05-06 11:20 | 1.02205 | 112.21121 | 37832 ft | 483 kts | 216° |
| 2026-05-06 11:21 | 0.96884 | 112.16992 | 37824 ft | 483 kts | 216° |
| 2026-05-06 11:21 | 0.91558 | 112.12859 | 37830 ft | 483 kts | 216° |
| 2026-05-06 11:22 | 0.86255 | 112.08744 | 37839 ft | 483 kts | 216° |
| 2026-05-06 11:22 | 0.80933 | 112.04614 | 37842 ft | 482 kts | 216° |
| 2026-05-06 11:23 | 0.75611 | 112.00485 | 37841 ft | 483 kts | 216° |
| 2026-05-06 11:23 | 0.70329 | 111.96386 | 37841 ft | 482 kts | 216° |
| 2026-05-06 11:24 | 0.65008 | 111.92256 | 37843 ft | 482 kts | 216° |
| 2026-05-06 11:24 | 0.59705 | 111.88142 | 37843 ft | 483 kts | 216° |
| 2026-05-06 11:25 | 0.54392 | 111.84020 | 37847 ft | 482 kts | 216° |
| 2026-05-06 11:25 | 0.49110 | 111.79921 | 37846 ft | 482 kts | 216° |
| 2026-05-06 11:26 | 0.43814 | 111.75811 | 37844 ft | 482 kts | 216° |
| 2026-05-06 11:26 | 0.38517 | 111.71699 | 37844 ft | 482 kts | 216° |
| 2026-05-06 11:27 | 0.33218 | 111.67587 | 37843 ft | 482 kts | 216° |
| 2026-05-06 11:27 | 0.27922 | 111.63478 | 37841 ft | 482 kts | 216° |
| 2026-05-06 11:28 | 0.22634 | 111.59374 | 37838 ft | 481 kts | 216° |
| 2026-05-06 11:28 | 0.17334 | 111.55263 | 37836 ft | 481 kts | 216° |
| 2026-05-06 11:29 | 0.12067 | 111.51173 | 37830 ft | 481 kts | 216° |
| 2026-05-06 11:29 | 0.06761 | 111.47054 | 37830 ft | 481 kts | 216° |
| 2026-05-06 11:30 | 0.01496 | 111.42969 | 37822 ft | 482 kts | 216° |
| 2026-05-06 11:30 | -0.03831 | 111.38837 | 37821 ft | 482 kts | 216° |
| 2026-05-06 11:31 | -0.09110 | 111.34740 | 37830 ft | 481 kts | 216° |
| 2026-05-06 11:31 | -0.14399 | 111.30634 | 37839 ft | 480 kts | 216° |
| 2026-05-06 11:32 | -0.19696 | 111.26521 | 37846 ft | 480 kts | 216° |
| 2026-05-06 11:32 | -0.24990 | 111.22411 | 37847 ft | 480 kts | 216° |
| 2026-05-06 11:33 | -0.30274 | 111.18304 | 37857 ft | 481 kts | 216° |
| 2026-05-06 11:33 | -0.35552 | 111.14204 | 37870 ft | 482 kts | 217° |
| 2026-05-06 11:34 | -0.40872 | 111.10075 | 37887 ft | 481 kts | 217° |
| 2026-05-06 11:34 | -0.46145 | 111.05975 | 37903 ft | 481 kts | 217° |
| 2026-05-06 11:35 | -0.51424 | 111.01861 | 37923 ft | 480 kts | 217° |
| 2026-05-06 11:35 | -0.56690 | 110.97757 | 37926 ft | 480 kts | 217° |
| 2026-05-06 11:36 | -0.61963 | 110.93644 | 37909 ft | 480 kts | 217° |
| 2026-05-06 11:36 | -0.67208 | 110.89554 | 37894 ft | 480 kts | 217° |
| 2026-05-06 11:37 | -0.72503 | 110.85425 | 37877 ft | 480 kts | 217° |
| 2026-05-06 11:37 | -0.77778 | 110.81313 | 37869 ft | 480 kts | 217° |
| 2026-05-06 11:38 | -0.83031 | 110.77217 | 37865 ft | 480 kts | 217° |
| 2026-05-06 11:38 | -0.88292 | 110.73113 | 37863 ft | 481 kts | 217° |
| 2026-05-06 11:39 | -0.93590 | 110.68979 | 37859 ft | 481 kts | 217° |
| 2026-05-06 11:39 | -0.98856 | 110.64871 | 37855 ft | 481 kts | 217° |
| 2026-05-06 11:40 | -1.04147 | 110.60742 | 37856 ft | 480 kts | 217° |
| 2026-05-06 11:40 | -1.09415 | 110.56632 | 37856 ft | 480 kts | 217° |
| 2026-05-06 11:41 | -1.14670 | 110.52530 | 37860 ft | 481 kts | 217° |
| 2026-05-06 11:41 | -1.19951 | 110.48407 | 37855 ft | 481 kts | 217° |
| 2026-05-06 11:42 | -1.25232 | 110.44280 | 37852 ft | 481 kts | 217° |
| 2026-05-06 11:42 | -1.30511 | 110.40172 | 37856 ft | 481 kts | 217° |
| 2026-05-06 11:43 | -1.35851 | 110.36124 | 37859 ft | 481 kts | 216° |
| 2026-05-06 11:43 | -1.41206 | 110.32072 | 37863 ft | 481 kts | 216° |
| 2026-05-06 11:44 | -1.49181 | 110.26017 | 37861 ft | 481 kts | 216° |
| 2026-05-06 11:44 | -1.54532 | 110.21950 | 37852 ft | 481 kts | 217° |
| 2026-05-06 11:45 | -1.59850 | 110.17903 | 37849 ft | 481 kts | 217° |
| 2026-05-06 11:45 | -1.65154 | 110.13861 | 37844 ft | 481 kts | 217° |
| 2026-05-06 11:46 | -1.70465 | 110.09778 | 37841 ft | 481 kts | 218° |
| 2026-05-06 11:46 | -1.75688 | 110.05566 | 37840 ft | 480 kts | 218° |
| 2026-05-06 11:47 | -1.80870 | 110.01365 | 37838 ft | 480 kts | 218° |
| 2026-05-06 11:47 | -1.86071 | 109.97159 | 37838 ft | 480 kts | 218° |
| 2026-05-06 11:48 | -1.91232 | 109.92988 | 37838 ft | 479 kts | 218° |
| 2026-05-06 11:48 | -1.96426 | 109.88789 | 37838 ft | 479 kts | 218° |
| 2026-05-06 11:49 | -2.01619 | 109.84592 | 37837 ft | 480 kts | 218° |
| 2026-05-06 11:49 | -2.06809 | 109.80399 | 37838 ft | 479 kts | 218° |
| 2026-05-06 11:50 | -2.11997 | 109.76205 | 37838 ft | 478 kts | 218° |
| 2026-05-06 11:50 | -2.17145 | 109.72047 | 37838 ft | 477 kts | 218° |
| 2026-05-06 11:51 | -2.22314 | 109.67870 | 37838 ft | 477 kts | 218° |
| 2026-05-06 11:51 | -2.27474 | 109.63698 | 37838 ft | 477 kts | 218° |
| 2026-05-06 11:52 | -2.32631 | 109.59528 | 37837 ft | 477 kts | 218° |
| 2026-05-06 11:52 | -2.37805 | 109.55345 | 37838 ft | 476 kts | 218° |
| 2026-05-06 11:53 | -2.43068 | 109.51359 | 37832 ft | 475 kts | 209° |
| 2026-05-06 11:53 | -2.49191 | 109.48923 | 37849 ft | 472 kts | 196° |
| 2026-05-06 11:54 | -2.55499 | 109.47061 | 37855 ft | 471 kts | 195° |
| 2026-05-06 11:54 | -2.61803 | 109.45186 | 37854 ft | 471 kts | 196° |
| 2026-05-06 11:55 | -2.68071 | 109.43247 | 37844 ft | 472 kts | 201° |
| 2026-05-06 11:55 | -2.73963 | 109.40270 | 37846 ft | 473 kts | 208° |
| 2026-05-06 11:56 | -2.79721 | 109.37103 | 37840 ft | 473 kts | 208° |
| 2026-05-06 11:56 | -2.85497 | 109.33944 | 37838 ft | 473 kts | 208° |
| 2026-05-06 11:57 | -2.91274 | 109.30805 | 37838 ft | 472 kts | 208° |
| 2026-05-06 11:57 | -2.97078 | 109.27660 | 37838 ft | 471 kts | 208° |
| 2026-05-06 11:58 | -3.02844 | 109.24536 | 37837 ft | 471 kts | 208° |
| 2026-05-06 11:58 | -3.08612 | 109.21413 | 37837 ft | 471 kts | 208° |
| 2026-05-06 11:59 | -3.14380 | 109.18288 | 37838 ft | 471 kts | 208° |
| 2026-05-06 11:59 | -3.20188 | 109.15142 | 37838 ft | 472 kts | 207° |
| 2026-05-06 12:00 | -3.25995 | 109.11997 | 37837 ft | 473 kts | 207° |
| 2026-05-06 12:00 | -3.31794 | 109.08858 | 37837 ft | 473 kts | 207° |
| 2026-05-06 12:01 | -3.37592 | 109.05718 | 37837 ft | 473 kts | 208° |
| 2026-05-06 12:01 | -3.43377 | 109.02582 | 37837 ft | 473 kts | 207° |
| 2026-05-06 12:02 | -3.49162 | 108.99445 | 37838 ft | 473 kts | 207° |
| 2026-05-06 12:02 | -3.54959 | 108.96305 | 37845 ft | 474 kts | 207° |
| 2026-05-06 12:03 | -3.60749 | 108.93166 | 37855 ft | 473 kts | 207° |
| 2026-05-06 12:03 | -3.66560 | 108.90016 | 37857 ft | 474 kts | 208° |
| 2026-05-06 12:04 | -3.72372 | 108.86864 | 37858 ft | 474 kts | 208° |
| 2026-05-06 12:04 | -3.78190 | 108.83708 | 37858 ft | 474 kts | 208° |
| 2026-05-06 12:05 | -3.83998 | 108.80558 | 37858 ft | 474 kts | 207° |
| 2026-05-06 12:05 | -3.89828 | 108.77396 | 37858 ft | 474 kts | 208° |
| 2026-05-06 12:06 | -3.95644 | 108.74239 | 37857 ft | 474 kts | 208° |
| 2026-05-06 12:06 | -4.01062 | 108.71298 | 37851 ft | 476 kts | 207° |
| 2026-05-06 12:07 | -4.06879 | 108.68142 | 37841 ft | 477 kts | 208° |
| 2026-05-06 12:07 | -4.12732 | 108.64964 | 37838 ft | 477 kts | 208° |
| 2026-05-06 12:08 | -4.18581 | 108.61790 | 37838 ft | 476 kts | 208° |
| 2026-05-06 12:08 | -4.24391 | 108.58634 | 37838 ft | 476 kts | 208° |
| 2026-05-06 12:09 | -4.30212 | 108.55473 | 37837 ft | 475 kts | 208° |
| 2026-05-06 12:09 | -4.36041 | 108.52306 | 37839 ft | 475 kts | 208° |
| 2026-05-06 12:10 | -4.41890 | 108.49129 | 37841 ft | 476 kts | 208° |
| 2026-05-06 12:10 | -4.47689 | 108.45977 | 37841 ft | 476 kts | 208° |
| 2026-05-06 12:11 | -4.53533 | 108.42800 | 37842 ft | 477 kts | 208° |
| 2026-05-06 12:11 | -4.59394 | 108.39614 | 37843 ft | 477 kts | 208° |
| 2026-05-06 12:12 | -4.65214 | 108.36450 | 37842 ft | 476 kts | 208° |
| 2026-05-06 12:12 | -4.71063 | 108.33269 | 37846 ft | 475 kts | 208° |
| 2026-05-06 12:13 | -4.77813 | 108.29596 | 37855 ft | 474 kts | 208° |
| 2026-05-06 12:13 | -4.83643 | 108.26424 | 37857 ft | 474 kts | 208° |
| 2026-05-06 12:14 | -4.88485 | 108.23791 | 37857 ft | 475 kts | 208° |
| 2026-05-06 12:14 | -4.94273 | 108.20641 | 37857 ft | 475 kts | 209° |
| 2026-05-06 12:15 | -5.00095 | 108.17471 | 37858 ft | 475 kts | 208° |
| 2026-05-06 12:15 | -5.05926 | 108.14295 | 37858 ft | 475 kts | 208° |
| 2026-05-06 12:16 | -5.08828 | 108.12715 | 37530 ft | 478 kts | 208° |
| 2026-05-06 12:16 | -5.12754 | 108.10576 | 36674 ft | 478 kts | 208° |
| 2026-05-06 12:16 | -5.14732 | 108.09498 | 36242 ft | 478 kts | 208° |
| 2026-05-06 12:16 | -5.17679 | 108.07892 | 35631 ft | 478 kts | 208° |
| 2026-05-06 12:17 | -5.20587 | 108.06308 | 35035 ft | 477 kts | 208° |
| 2026-05-06 12:17 | -5.23484 | 108.04730 | 34443 ft | 476 kts | 208° |
| 2026-05-06 12:17 | -5.26424 | 108.03129 | 33830 ft | 476 kts | 208° |
| 2026-05-06 12:17 | -5.30282 | 108.01026 | 33006 ft | 475 kts | 207° |
| 2026-05-06 12:18 | -5.33177 | 107.99448 | 32387 ft | 475 kts | 207° |
| 2026-05-06 12:18 | -5.35139 | 107.98378 | 31971 ft | 476 kts | 207° |
| 2026-05-06 12:18 | -5.38050 | 107.96792 | 31317 ft | 477 kts | 207° |
| 2026-05-06 12:18 | -5.40980 | 107.95196 | 30641 ft | 478 kts | 207° |
| 2026-05-06 12:19 | -5.43890 | 107.93609 | 29954 ft | 480 kts | 207° |
| 2026-05-06 12:19 | -5.46851 | 107.91994 | 29233 ft | 482 kts | 207° |
| 2026-05-06 12:19 | -5.49796 | 107.90387 | 28558 ft | 484 kts | 208° |
| 2026-05-06 12:19 | -5.52565 | 107.88517 | 27908 ft | 485 kts | 221° |
| 2026-05-06 12:20 | -5.55234 | 107.84821 | 26479 ft | 498 kts | 244° |
| 2026-05-06 12:20 | -5.56647 | 107.81691 | 25860 ft | 496 kts | 245° |
| 2026-05-06 12:20 | -5.57619 | 107.79624 | 25534 ft | 493 kts | 244° |
| 2026-05-06 12:20 | -5.59622 | 107.75510 | 24841 ft | 487 kts | 243° |
| 2026-05-06 12:21 | -5.61121 | 107.72510 | 24301 ft | 483 kts | 243° |
| 2026-05-06 12:21 | -5.62139 | 107.70492 | 23934 ft | 481 kts | 243° |
| 2026-05-06 12:21 | -5.63643 | 107.67528 | 23391 ft | 478 kts | 242° |
| 2026-05-06 12:21 | -5.65159 | 107.64549 | 22868 ft | 474 kts | 242° |
| 2026-05-06 12:22 | -5.66643 | 107.61635 | 22360 ft | 471 kts | 242° |
| 2026-05-06 12:22 | -5.68120 | 107.58736 | 21850 ft | 468 kts | 242° |
| 2026-05-06 12:22 | -5.70095 | 107.54862 | 21214 ft | 463 kts | 242° |
| 2026-05-06 12:22 | -5.71061 | 107.52966 | 20907 ft | 461 kts | 242° |
| 2026-05-06 12:23 | -5.72528 | 107.50086 | 20437 ft | 457 kts | 242° |
| 2026-05-06 12:23 | -5.74437 | 107.46338 | 19821 ft | 453 kts | 242° |
| 2026-05-06 12:23 | -5.75388 | 107.44471 | 19504 ft | 450 kts | 242° |
| 2026-05-06 12:23 | -5.77268 | 107.40778 | 18877 ft | 445 kts | 242° |
| 2026-05-06 12:24 | -5.78205 | 107.38940 | 18556 ft | 443 kts | 242° |
| 2026-05-06 12:24 | -5.79598 | 107.36206 | 18090 ft | 438 kts | 242° |
| 2026-05-06 12:24 | -5.81425 | 107.32610 | 17456 ft | 434 kts | 243° |
| 2026-05-06 12:24 | -5.82350 | 107.30788 | 17130 ft | 432 kts | 243° |
| 2026-05-06 12:25 | -5.84149 | 107.27245 | 16510 ft | 428 kts | 243° |
| 2026-05-06 12:25 | -5.85042 | 107.25486 | 16188 ft | 426 kts | 243° |
| 2026-05-06 12:25 | -5.86395 | 107.22822 | 15715 ft | 423 kts | 242° |
| 2026-05-06 12:25 | -5.88152 | 107.19360 | 15270 ft | 414 kts | 242° |
| 2026-05-06 12:26 | -5.89017 | 107.17656 | 15050 ft | 410 kts | 242° |
| 2026-05-06 12:26 | -5.90714 | 107.14312 | 14627 ft | 401 kts | 242° |
| 2026-05-06 12:26 | -5.91567 | 107.12632 | 14415 ft | 397 kts | 242° |
| 2026-05-06 12:26 | -5.92809 | 107.10185 | 14113 ft | 391 kts | 242° |
| 2026-05-06 12:27 | -5.94022 | 107.07800 | 13975 ft | 380 kts | 242° |
| 2026-05-06 12:27 | -5.95200 | 107.05478 | 13902 ft | 368 kts | 242° |
| 2026-05-06 12:27 | -5.96216 | 107.02290 | 13838 ft | 353 kts | 265° |
| 2026-05-06 12:27 | -5.96253 | 106.99875 | 13590 ft | 349 kts | 270° |
| 2026-05-06 12:28 | -5.96205 | 106.97405 | 13053 ft | 354 kts | 270° |
| 2026-05-06 12:28 | -5.96172 | 106.95765 | 12732 ft | 356 kts | 270° |
| 2026-05-06 12:28 | -5.96136 | 106.93282 | 12280 ft | 358 kts | 270° |
| 2026-05-06 12:28 | -5.96114 | 106.90779 | 11831 ft | 359 kts | 270° |
| 2026-05-06 12:29 | -5.96101 | 106.88264 | 11390 ft | 360 kts | 270° |
| 2026-05-06 12:29 | -5.96089 | 106.84926 | 10828 ft | 360 kts | 270° |
| 2026-05-06 12:29 | -5.96082 | 106.82428 | 10410 ft | 361 kts | 270° |
| 2026-05-06 12:29 | -5.96081 | 106.79922 | 10092 ft | 356 kts | 268° |
| 2026-05-06 12:30 | -5.96279 | 106.78310 | 10015 ft | 348 kts | 255° |
| 2026-05-06 12:30 | -5.97100 | 106.76041 | 9827 ft | 340 kts | 247° |
| 2026-05-06 12:30 | -5.98009 | 106.73878 | 9594 ft | 336 kts | 246° |
| 2026-05-06 12:30 | -5.98914 | 106.71742 | 9342 ft | 331 kts | 246° |
| 2026-05-06 12:31 | -6.00094 | 106.68903 | 9032 ft | 325 kts | 247° |
| 2026-05-06 12:31 | -6.00948 | 106.66816 | 8824 ft | 321 kts | 247° |
| 2026-05-06 12:31 | -6.01782 | 106.64761 | 8605 ft | 317 kts | 247° |
| 2026-05-06 12:31 | -6.02329 | 106.63409 | 8457 ft | 314 kts | 247° |
| 2026-05-06 12:32 | -6.03149 | 106.61379 | 7946 ft | 308 kts | 247° |
| 2026-05-06 12:32 | -6.03941 | 106.59421 | 7475 ft | 301 kts | 247° |
| 2026-05-06 12:32 | -6.04716 | 106.57501 | 7019 ft | 295 kts | 247° |
| 2026-05-06 12:32 | -6.05726 | 106.55002 | 6440 ft | 287 kts | 247° |
| 2026-05-06 12:33 | -6.06230 | 106.53755 | 6159 ft | 282 kts | 248° |
| 2026-05-06 12:33 | -6.07191 | 106.51366 | 5633 ft | 274 kts | 248° |
| 2026-05-06 12:33 | -6.07669 | 106.50185 | 5375 ft | 270 kts | 248° |
| 2026-05-06 12:33 | -6.08589 | 106.47905 | 4870 ft | 264 kts | 248° |
| 2026-05-06 12:34 | -6.09053 | 106.46757 | 4608 ft | 259 kts | 248° |
| 2026-05-06 12:34 | -6.09718 | 106.45108 | 4220 ft | 254 kts | 248° |
| 2026-05-06 12:34 | -6.10610 | 106.42955 | 3706 ft | 247 kts | 240° |
| 2026-05-06 12:34 | -6.11294 | 106.42066 | 3431 ft | 242 kts | 214° |
| 2026-05-06 12:35 | -6.12825 | 106.41518 | 3076 ft | 231 kts | 173° |
| 2026-05-06 12:35 | -6.14336 | 106.41924 | 2777 ft | 219 kts | 156° |
| 2026-05-06 12:35 | -6.16231 | 106.42620 | 2373 ft | 216 kts | 160° |
| 2026-05-06 12:35 | -6.17169 | 106.42951 | 2162 ft | 212 kts | 148° |
| 2026-05-06 12:36 | -6.18181 | 106.44389 | 2065 ft | 184 kts | 93° |
| 2026-05-06 12:36 | -6.18190 | 106.45228 | 2086 ft | 172 kts | 86° |
| 2026-05-06 12:36 | -6.18149 | 106.46396 | 2064 ft | 167 kts | 87° |
| 2026-05-06 12:36 | -6.18105 | 106.47573 | 2063 ft | 167 kts | 84° |
| 2026-05-06 12:37 | -6.17838 | 106.49091 | 2059 ft | 167 kts | 74° |
| 2026-05-06 12:37 | -6.17495 | 106.50208 | 2060 ft | 166 kts | 71° |
| 2026-05-06 12:37 | -6.17100 | 106.51305 | 2058 ft | 166 kts | 69° |
| 2026-05-06 12:37 | -6.16825 | 106.52026 | 2061 ft | 166 kts | 68° |
| 2026-05-06 12:38 | -6.16269 | 106.53429 | 2047 ft | 153 kts | 68° |
| 2026-05-06 12:38 | -6.15879 | 106.54408 | 1953 ft | 151 kts | 68° |
| 2026-05-06 12:38 | -6.15622 | 106.55058 | 1815 ft | 148 kts | 68° |
| 2026-05-06 12:38 | -6.15121 | 106.56312 | 1564 ft | 144 kts | 68° |
| 2026-05-06 12:39 | -6.14872 | 106.56937 | 1443 ft | 144 kts | 68° |
| 2026-05-06 12:39 | -6.14497 | 106.57877 | 1262 ft | 144 kts | 68° |
| 2026-05-06 12:39 | -6.14127 | 106.58804 | 1082 ft | 143 kts | 68° |
| 2026-05-06 12:39 | -6.13633 | 106.60044 | 841 ft | 143 kts | 68° |
| 2026-05-06 12:40 | -6.13264 | 106.60969 | 661 ft | 142 kts | 68° |
| 2026-05-06 12:40 | -6.12897 | 106.61888 | 481 ft | 142 kts | 68° |
| 2026-05-06 12:40 | -6.12651 | 106.62502 | 362 ft | 142 kts | 68° |
| 2026-05-06 12:40 | -6.12291 | 106.63416 | 181 ft | 141 kts | 68° |
| 2026-05-06 12:41 | -6.11922 | 106.64336 | 58 ft | 134 kts | 67° |
| 2026-05-06 12:41 | -6.11573 | 106.65207 | 55 ft | 67 kts | 68° |
| 2026-05-06 12:41 | -6.11453 | 106.65508 | 55 ft | 38 kts | 69° |
| 2026-05-06 12:41 | -6.11417 | 106.65730 | 55 ft | 29 kts | 95° |
| 2026-05-06 12:42 | -6.11458 | 106.65862 | 55 ft | 6 kts | 142° |
| 2026-05-06 12:42 | -6.11460 | 106.65864 | 55 ft | 0 kts | 143° |
| 2026-05-06 12:42 | -6.11466 | 106.65868 | 55 ft | 2 kts | 148° |
| 2026-05-06 12:42 | -6.11517 | 106.65894 | 55 ft | 9 kts | 153° |
| 2026-05-06 12:43 | -6.11566 | 106.65942 | 55 ft | 10 kts | 99° |
| 2026-05-06 12:43 | -6.11544 | 106.66017 | 55 ft | 11 kts | 68° |
| 2026-05-06 12:43 | -6.11512 | 106.66098 | 55 ft | 12 kts | 68° |
| 2026-05-06 12:43 | -6.11481 | 106.66176 | 55 ft | 10 kts | 68° |
| 2026-05-06 12:44 | -6.11461 | 106.66225 | 55 ft | 11 kts | 68° |
| 2026-05-06 12:44 | -6.11442 | 106.66273 | 55 ft | 7 kts | 68° |
| 2026-05-06 12:44 | -6.11468 | 106.66335 | 55 ft | 9 kts | 146° |
| 2026-05-06 12:44 | -6.11514 | 106.66356 | 55 ft | 11 kts | 159° |
| 2026-05-06 12:45 | -6.11626 | 106.66402 | 55 ft | 12 kts | 146° |
| 2026-05-06 12:45 | -6.11647 | 106.66449 | 55 ft | 9 kts | 82° |
| 2026-05-06 12:45 | -6.11682 | 106.66512 | 55 ft | 7 kts | 154° |
| 2026-05-06 12:46 | -6.11716 | 106.66526 | 55 ft | 7 kts | 158° |
| 2026-05-06 12:46 | -6.11731 | 106.66533 | 55 ft | 0 kts | 158° |